createdAt,value
2017-11-12T00:00:38.074Z,9.70
2017-11-12T00:03:05.547Z,9.70
2017-11-12T00:05:33.015Z,9.70
2017-11-12T00:08:00.474Z,9.70
2017-11-12T00:10:28.695Z,9.80
2017-11-12T00:12:56.923Z,9.70
2017-11-12T00:15:25.165Z,9.80
2017-11-12T00:17:52.612Z,9.80
2017-11-12T00:20:20.105Z,9.80
2017-11-12T00:22:47.582Z,9.70
2017-11-12T00:25:15.856Z,9.80
2017-11-12T00:27:43.335Z,9.70
2017-11-12T00:30:10.830Z,9.80
2017-11-12T00:32:39.061Z,9.90
2017-11-12T00:35:06.508Z,9.80
2017-11-12T00:37:33.992Z,9.90
2017-11-12T00:40:01.454Z,9.80
2017-11-12T00:42:28.980Z,9.80
2017-11-12T00:44:56.475Z,9.80
2017-11-12T00:47:23.922Z,9.80
2017-11-12T00:49:52.151Z,9.90
2017-11-12T00:52:19.652Z,9.80
2017-11-12T00:54:47.863Z,9.80
2017-11-12T00:57:15.322Z,9.80
2017-11-12T00:59:43.614Z,9.90
2017-11-12T01:02:11.079Z,9.90
2017-11-12T01:04:40.264Z,9.90
2017-11-12T01:07:07.748Z,9.90
2017-11-12T01:09:35.202Z,9.90
2017-11-12T01:12:03.420Z,9.80
2017-11-12T01:14:30.991Z,9.80
2017-11-12T01:16:58.451Z,9.80
2017-11-12T01:19:25.947Z,9.80
2017-11-12T01:21:53.418Z,9.80
2017-11-12T01:24:21.649Z,9.80
2017-11-12T01:26:49.119Z,9.60
2017-11-12T01:29:16.617Z,9.80
2017-11-12T01:31:44.162Z,9.70
2017-11-12T01:34:12.437Z,9.80
2017-11-12T01:36:39.906Z,9.70
2017-11-12T01:39:07.361Z,9.80
2017-11-12T01:41:35.590Z,9.60
2017-11-12T01:44:03.106Z,9.60
2017-11-12T01:46:31.334Z,9.20
2017-11-12T01:48:58.795Z,9.00
2017-11-12T01:51:27.032Z,8.80
2017-11-12T01:53:54.490Z,8.80
2017-11-12T01:56:21.973Z,8.60
2017-11-12T01:58:50.283Z,8.10
2017-11-12T02:01:17.750Z,8.10
2017-11-12T02:03:45.206Z,8.10
2017-11-12T02:06:13.540Z,7.90
2017-11-12T02:08:41.007Z,7.90
2017-11-12T02:11:08.472Z,7.80
2017-11-12T02:13:36.839Z,7.70
2017-11-12T02:16:04.301Z,7.70
2017-11-12T02:18:32.531Z,7.60
2017-11-12T02:21:00.048Z,7.50
2017-11-12T02:23:28.267Z,7.40
2017-11-12T02:25:55.757Z,7.40
2017-11-12T02:28:23.254Z,7.40
2017-11-12T02:30:50.785Z,7.40
2017-11-12T02:33:18.277Z,7.50
2017-11-12T02:35:46.516Z,7.50
2017-11-12T02:38:13.991Z,7.40
2017-11-12T02:40:41.455Z,7.50
2017-11-12T02:43:08.929Z,7.40
2017-11-12T02:45:37.160Z,7.30
2017-11-12T02:48:04.621Z,7.30
2017-11-12T02:50:32.869Z,7.30
2017-11-12T02:53:00.473Z,7.30
2017-11-12T02:55:27.950Z,7.30
2017-11-12T02:57:55.424Z,7.30
2017-11-12T03:00:22.866Z,7.50
2017-11-12T03:02:50.380Z,7.20
2017-11-12T03:05:17.997Z,7.20
2017-11-12T03:07:45.467Z,7.20
2017-11-12T03:10:12.991Z,7.30
2017-11-12T03:12:40.589Z,7.10
2017-11-12T03:15:08.055Z,7.10
2017-11-12T03:17:35.508Z,7.10
2017-11-12T03:20:02.987Z,6.90
2017-11-12T03:22:30.521Z,6.80
2017-11-12T03:24:57.983Z,6.80
2017-11-12T03:27:26.230Z,6.80
2017-11-12T03:29:53.803Z,6.80
2017-11-12T03:32:21.269Z,6.70
2017-11-12T03:34:48.731Z,6.70
2017-11-12T03:37:16.972Z,6.60
2017-11-12T03:39:45.204Z,6.60
2017-11-12T03:42:12.828Z,6.60
2017-11-12T03:44:40.280Z,6.60
2017-11-12T03:47:07.767Z,6.60
2017-11-12T03:49:36.108Z,6.50
2017-11-12T03:52:03.569Z,6.50
2017-11-12T03:54:31.796Z,6.70
2017-11-12T03:56:59.294Z,6.60
2017-11-12T03:59:26.752Z,6.80
2017-11-12T04:01:54.216Z,6.80
2017-11-12T04:04:22.458Z,6.70
2017-11-12T04:06:49.912Z,6.70
2017-11-12T04:09:18.154Z,6.80
2017-11-12T04:11:45.680Z,6.80
2017-11-12T04:14:13.916Z,6.60
2017-11-12T04:16:41.393Z,6.60
2017-11-12T04:19:08.860Z,6.70
2017-11-12T04:21:36.318Z,6.60
2017-11-12T04:24:04.546Z,6.60
2017-11-12T04:26:32.053Z,6.60
2017-11-12T04:29:00.282Z,6.50
2017-11-12T04:31:28.515Z,6.50
2017-11-12T04:33:55.988Z,6.40
2017-11-12T04:36:24.235Z,6.50
2017-11-12T04:38:52.457Z,6.50
2017-11-12T04:41:19.940Z,6.50
2017-11-12T04:43:48.914Z,6.70
2017-11-12T04:46:16.378Z,6.70
2017-11-12T04:48:44.860Z,6.60
2017-11-12T04:51:13.175Z,6.60
2017-11-12T04:53:41.401Z,6.60
2017-11-12T04:56:08.878Z,6.60
2017-11-12T04:58:37.108Z,6.60
2017-11-12T05:01:04.643Z,6.60
2017-11-12T05:03:32.882Z,6.70
2017-11-12T05:06:00.341Z,6.70
2017-11-12T05:08:27.832Z,6.60
2017-11-12T05:10:55.285Z,6.50
2017-11-12T05:13:23.517Z,6.50
2017-11-12T05:15:51.005Z,6.50
2017-11-12T05:18:18.535Z,6.50
2017-11-12T05:20:46.047Z,6.60
2017-11-12T05:23:14.276Z,6.50
2017-11-12T05:25:41.748Z,6.50
2017-11-12T05:28:10.011Z,6.40
2017-11-12T05:30:37.471Z,6.50
2017-11-12T05:33:04.944Z,6.20
2017-11-12T05:35:32.390Z,6.20
2017-11-12T05:37:59.842Z,6.20
2017-11-12T05:40:28.114Z,6.30
2017-11-12T05:42:55.578Z,6.30
2017-11-12T05:45:23.048Z,6.40
2017-11-12T05:47:51.266Z,6.50
2017-11-12T05:50:18.755Z,6.50
2017-11-12T05:52:46.244Z,6.60
2017-11-12T05:55:13.702Z,6.60
2017-11-12T05:57:41.207Z,6.60
2017-11-12T06:00:08.666Z,6.70
2017-11-12T06:02:36.900Z,6.70
2017-11-12T06:05:04.352Z,6.70
2017-11-12T06:07:31.931Z,6.70
2017-11-12T06:10:00.157Z,6.30
2017-11-12T06:12:27.634Z,6.30
2017-11-12T06:14:55.112Z,6.30
2017-11-12T06:17:22.558Z,6.40
2017-11-12T06:19:50.829Z,6.40
2017-11-12T06:22:18.286Z,6.40
2017-11-12T06:24:45.756Z,6.40
2017-11-12T06:27:13.230Z,6.30
2017-11-12T06:29:41.460Z,6.40
2017-11-12T06:32:08.943Z,6.40
2017-11-12T06:34:36.415Z,6.30
2017-11-12T06:37:04.072Z,6.30
2017-11-12T06:39:31.543Z,6.30
2017-11-12T06:41:59.020Z,6.20
2017-11-12T06:44:26.504Z,6.20
2017-11-12T06:46:53.969Z,6.30
2017-11-12T06:49:22.228Z,6.20
2017-11-12T06:51:49.707Z,6.20
2017-11-12T06:54:17.172Z,6.20
2017-11-12T06:56:44.680Z,6.30
2017-11-12T06:59:12.175Z,6.30
2017-11-12T07:01:39.737Z,6.30
2017-11-12T07:04:07.221Z,6.20
2017-11-12T07:06:34.708Z,5.90
2017-11-12T07:09:02.190Z,6.10
2017-11-12T07:11:29.651Z,5.90
2017-11-12T07:13:57.912Z,6.00
2017-11-12T07:16:26.143Z,5.90
2017-11-12T07:18:53.636Z,5.90
2017-11-12T07:21:21.127Z,5.80
2017-11-12T07:23:48.592Z,6.00
2017-11-12T07:26:16.845Z,6.10
2017-11-12T07:28:44.303Z,6.10
2017-11-12T07:31:11.777Z,6.00
2017-11-12T07:33:39.281Z,6.20
2017-11-12T07:36:06.825Z,6.20
2017-11-12T07:38:35.045Z,5.90
2017-11-12T07:41:02.627Z,5.90
2017-11-12T07:43:30.073Z,5.90
2017-11-12T07:45:58.408Z,5.90
2017-11-12T07:48:25.866Z,5.90
2017-11-12T07:50:53.336Z,5.80
2017-11-12T07:53:21.579Z,5.70
2017-11-12T07:55:49.040Z,5.70
2017-11-12T07:58:17.280Z,5.80
2017-11-12T08:00:44.757Z,5.80
2017-11-12T08:03:12.229Z,5.70
2017-11-12T08:05:39.709Z,5.80
2017-11-12T08:08:07.167Z,5.90
2017-11-12T08:10:34.714Z,5.80
2017-11-12T08:13:02.176Z,5.80
2017-11-12T08:15:29.788Z,5.70
2017-11-12T08:17:58.034Z,5.60
2017-11-12T08:20:25.519Z,5.60
2017-11-12T08:22:53.027Z,5.60
2017-11-12T08:25:20.489Z,5.70
2017-11-12T08:27:48.080Z,5.60
2017-11-12T08:30:16.466Z,5.60
2017-11-12T08:32:44.052Z,5.60
2017-11-12T08:35:11.557Z,5.60
2017-11-12T08:37:39.891Z,5.60
2017-11-12T08:40:07.368Z,5.60
2017-11-12T08:42:34.856Z,5.40
2017-11-12T08:45:02.316Z,5.50
2017-11-12T08:47:29.815Z,5.60
2017-11-12T08:49:57.331Z,5.50
2017-11-12T08:52:24.803Z,5.60
2017-11-12T08:54:53.103Z,5.60
2017-11-12T08:57:21.338Z,5.60
2017-11-12T08:59:48.912Z,5.60
2017-11-12T09:02:16.492Z,5.60
2017-11-12T09:04:44.055Z,5.50
2017-11-12T09:07:12.293Z,5.40
2017-11-12T09:09:39.756Z,5.40
2017-11-12T09:12:07.275Z,5.40
2017-11-12T09:14:34.756Z,5.40
2017-11-12T09:17:02.373Z,5.50
2017-11-12T09:19:29.862Z,5.50
2017-11-12T09:21:57.324Z,5.50
2017-11-12T09:24:24.878Z,5.60
2017-11-12T09:26:52.407Z,5.70
2017-11-12T09:29:20.651Z,5.70
2017-11-12T09:31:48.176Z,5.70
2017-11-12T09:34:15.685Z,5.70
2017-11-12T09:36:43.138Z,5.70
2017-11-12T09:39:11.517Z,5.90
2017-11-12T09:41:38.970Z,6.00
2017-11-12T09:44:07.376Z,5.90
2017-11-12T09:46:35.604Z,5.90
2017-11-12T09:49:03.133Z,5.90
2017-11-12T09:51:30.612Z,5.90
2017-11-12T09:53:58.117Z,6.10
2017-11-12T09:56:25.752Z,6.20
2017-11-12T09:58:54.009Z,6.50
2017-11-12T10:01:21.459Z,6.50
2017-11-12T10:03:48.931Z,6.50
2017-11-12T10:06:16.413Z,6.40
2017-11-12T10:08:43.864Z,6.40
2017-11-12T10:11:12.150Z,6.40
2017-11-12T10:13:40.425Z,6.40
2017-11-12T10:16:07.912Z,6.40
2017-11-12T10:18:35.372Z,6.50
2017-11-12T10:21:02.883Z,6.60
2017-11-12T10:23:30.345Z,6.60
2017-11-12T10:25:57.804Z,6.60
2017-11-12T10:28:25.299Z,6.50
2017-11-12T10:30:52.786Z,6.50
2017-11-12T10:33:20.287Z,6.60
2017-11-12T10:35:47.743Z,6.60
2017-11-12T10:38:15.222Z,6.60
2017-11-12T10:40:42.795Z,6.50
2017-11-12T10:43:10.261Z,6.50
2017-11-12T10:45:37.759Z,6.60
2017-11-12T10:48:05.239Z,6.60
2017-11-12T10:50:32.729Z,6.60
2017-11-12T10:53:00.269Z,6.70
2017-11-12T10:55:28.516Z,6.80
2017-11-12T10:57:55.980Z,6.80
2017-11-12T11:00:23.561Z,6.80
2017-11-12T11:02:51.035Z,6.80
2017-11-12T11:05:19.256Z,6.90
2017-11-12T11:07:46.786Z,6.90
2017-11-12T11:10:14.298Z,7.10
2017-11-12T11:12:42.909Z,7.30
2017-11-12T11:15:11.136Z,7.40
2017-11-12T11:17:38.600Z,7.40
2017-11-12T11:20:06.078Z,7.50
2017-11-12T11:22:33.577Z,7.50
2017-11-12T11:25:01.155Z,7.60
2017-11-12T11:27:28.636Z,7.70
2017-11-12T11:29:56.192Z,7.80
2017-11-12T11:32:23.670Z,8.00
2017-11-12T11:34:51.131Z,8.20
2017-11-12T11:37:19.410Z,8.50
2017-11-12T11:39:46.864Z,8.50
2017-11-12T11:42:14.328Z,8.60
2017-11-12T11:44:42.576Z,8.80
2017-11-12T11:47:10.032Z,8.80
2017-11-12T11:49:37.508Z,8.90
2017-11-12T11:52:04.962Z,9.00
2017-11-12T11:54:32.445Z,9.00
2017-11-12T11:56:59.935Z,9.10
2017-11-12T11:59:28.791Z,9.30
2017-11-12T12:01:56.251Z,9.20
2017-11-12T12:04:24.489Z,9.60
2017-11-12T12:06:51.961Z,9.50
2017-11-12T12:09:19.421Z,9.70
2017-11-12T12:11:47.672Z,9.90
2017-11-12T12:14:15.219Z,9.90
2017-11-12T12:16:42.709Z,10.00
2017-11-12T12:19:10.172Z,10.20
2017-11-12T12:21:38.419Z,10.20
2017-11-12T12:24:06.648Z,10.20
2017-11-12T12:26:34.995Z,10.30
2017-11-12T12:29:02.476Z,10.20
2017-11-12T12:31:30.106Z,10.40
2017-11-12T12:33:57.622Z,10.30
2017-11-12T12:36:25.103Z,10.40
2017-11-12T12:38:53.326Z,10.50
2017-11-12T12:41:20.797Z,10.50
2017-11-12T12:43:48.332Z,10.60
2017-11-12T12:46:15.831Z,10.60
2017-11-12T12:48:43.279Z,10.60
2017-11-12T12:51:10.748Z,10.90
2017-11-12T12:53:38.333Z,10.80
2017-11-12T12:56:05.811Z,10.90
2017-11-12T12:58:33.411Z,10.90
2017-11-12T13:01:00.877Z,10.90
2017-11-12T13:03:28.331Z,10.90
2017-11-12T13:05:56.244Z,10.90
2017-11-12T13:08:23.734Z,11.00
2017-11-12T13:10:51.352Z,11.00
2017-11-12T13:13:18.859Z,10.90
2017-11-12T13:15:47.072Z,10.80
2017-11-12T13:18:14.565Z,10.80
2017-11-12T13:20:42.073Z,10.80
2017-11-12T13:23:10.311Z,10.70
2017-11-12T13:25:37.900Z,10.70
2017-11-12T13:28:05.354Z,10.70
2017-11-12T13:30:32.822Z,10.60
2017-11-12T13:33:00.347Z,10.60
2017-11-12T13:35:27.816Z,10.60
2017-11-12T13:37:56.231Z,10.60
2017-11-12T13:40:23.716Z,10.60
2017-11-12T13:42:51.175Z,10.60
2017-11-12T13:45:18.827Z,10.60
2017-11-12T13:47:47.108Z,10.70
2017-11-12T13:50:15.378Z,10.80
2017-11-12T13:52:42.836Z,10.80
2017-11-12T13:55:10.294Z,10.80
2017-11-12T13:57:37.754Z,10.80
2017-11-12T14:00:05.988Z,10.90
2017-11-12T14:02:33.524Z,10.80
2017-11-12T14:05:01.001Z,11.00
2017-11-12T14:07:28.467Z,11.00
2017-11-12T14:09:56.011Z,11.00
2017-11-12T14:12:23.497Z,11.00
2017-11-12T14:14:50.967Z,11.00
2017-11-12T14:17:18.462Z,11.00
2017-11-12T14:19:45.921Z,11.00
2017-11-12T14:22:14.175Z,10.90
2017-11-12T14:24:42.460Z,10.80
2017-11-12T14:27:10.690Z,10.80
2017-11-12T14:29:38.180Z,10.80
2017-11-12T14:32:05.924Z,10.70
2017-11-12T14:34:33.437Z,10.60
2017-11-12T14:37:00.921Z,10.60
2017-11-12T14:39:28.979Z,10.50
2017-11-12T14:41:57.234Z,10.50
2017-11-12T14:44:24.704Z,10.60
2017-11-12T14:46:52.283Z,10.60
2017-11-12T14:49:19.762Z,10.70
2017-11-12T14:51:48.022Z,10.80
2017-11-12T14:54:15.558Z,10.80
2017-11-12T14:56:43.039Z,10.80
2017-11-12T14:59:10.521Z,10.80
2017-11-12T15:01:38.029Z,10.80
2017-11-12T15:04:05.489Z,10.80
2017-11-12T15:06:32.969Z,10.80
2017-11-12T15:09:00.503Z,10.70
2017-11-12T15:11:27.969Z,10.70
2017-11-12T15:13:55.440Z,10.80
2017-11-12T15:16:22.962Z,10.80
2017-11-12T15:18:51.180Z,10.80
2017-11-12T15:21:18.710Z,10.80
2017-11-12T15:23:46.209Z,10.80
2017-11-12T15:26:14.580Z,10.10
2017-11-12T15:28:42.079Z,10.00
2017-11-12T15:31:09.756Z,9.20
2017-11-12T15:33:37.223Z,8.50
2017-11-12T15:36:04.705Z,7.70
2017-11-12T15:38:32.193Z,7.30
2017-11-12T15:40:59.673Z,7.00
2017-11-12T15:43:27.144Z,6.70
2017-11-12T15:45:54.623Z,6.60
2017-11-12T15:48:22.138Z,6.50
2017-11-12T15:50:49.651Z,6.40
2017-11-12T15:53:17.112Z,6.40
2017-11-12T15:55:44.583Z,6.40
2017-11-12T15:58:12.093Z,6.40
2017-11-12T16:00:40.337Z,6.40
2017-11-12T16:03:07.832Z,6.40
2017-11-12T16:05:35.297Z,6.50
2017-11-12T16:08:02.789Z,6.50
2017-11-12T16:10:30.343Z,6.40
2017-11-12T16:12:57.795Z,6.50
2017-11-12T16:15:25.264Z,6.30
2017-11-12T16:17:52.765Z,6.20
2017-11-12T16:20:20.239Z,6.10
2017-11-12T16:22:47.734Z,6.00
2017-11-12T16:25:16.062Z,6.10
2017-11-12T16:27:43.611Z,6.00
2017-11-12T16:30:11.272Z,6.10
2017-11-12T16:32:38.783Z,6.20
2017-11-12T16:35:06.231Z,6.20
2017-11-12T16:37:33.720Z,6.20
2017-11-12T16:40:01.181Z,6.30
2017-11-12T16:42:28.720Z,6.30
2017-11-12T16:44:56.947Z,6.20
2017-11-12T16:47:24.441Z,6.20
2017-11-12T16:49:51.996Z,6.20
2017-11-12T16:52:20.242Z,6.20
2017-11-12T16:54:47.738Z,6.00
2017-11-12T16:57:15.205Z,6.10
2017-11-12T16:59:42.685Z,6.20
2017-11-12T17:02:10.266Z,6.00
2017-11-12T17:04:37.751Z,6.10
2017-11-12T17:07:05.339Z,6.10
2017-11-12T17:09:32.835Z,5.90
2017-11-12T17:12:00.313Z,5.90
2017-11-12T17:14:27.887Z,6.00
2017-11-12T17:16:55.444Z,6.10
2017-11-12T17:19:22.941Z,6.10
2017-11-12T17:21:50.432Z,6.10
2017-11-12T17:24:17.931Z,6.20
2017-11-12T17:26:45.399Z,6.20
2017-11-12T17:29:12.872Z,6.30
2017-11-12T17:31:40.380Z,6.20
2017-11-12T17:34:07.868Z,6.20
2017-11-12T17:36:35.350Z,6.20
2017-11-12T17:39:02.816Z,6.20
2017-11-12T17:41:30.305Z,6.10
2017-11-12T17:43:57.975Z,6.00
2017-11-12T17:46:25.456Z,6.10
2017-11-12T17:48:52.963Z,6.00
2017-11-12T17:51:20.446Z,6.00
2017-11-12T17:53:48.120Z,6.10
2017-11-12T17:56:15.596Z,6.00
2017-11-12T17:58:43.855Z,6.00
2017-11-12T18:01:11.381Z,6.00
2017-11-12T18:03:38.897Z,6.10
2017-11-12T18:06:06.538Z,6.00
2017-11-12T18:08:34.060Z,5.90
2017-11-12T18:11:01.539Z,5.80
2017-11-12T18:13:29.113Z,5.60
2017-11-12T18:15:56.630Z,5.40
2017-11-12T18:18:24.119Z,5.30
2017-11-12T18:20:51.600Z,5.20
2017-11-12T18:23:19.818Z,5.00
2017-11-12T18:25:47.321Z,5.00
2017-11-12T18:28:14.896Z,5.00
2017-11-12T18:30:42.396Z,5.10
2017-11-12T18:33:09.930Z,5.00
2017-11-12T18:35:37.411Z,5.00
2017-11-12T18:38:05.636Z,4.90
2017-11-12T18:40:34.146Z,4.90
2017-11-12T18:43:01.853Z,4.90
2017-11-12T18:45:29.329Z,4.90
2017-11-12T18:47:56.876Z,4.90
2017-11-12T18:50:24.335Z,4.80
2017-11-12T18:52:52.575Z,4.80
2017-11-12T18:55:23.317Z,4.80
2017-11-12T18:57:52.364Z,4.80
2017-11-12T19:00:29.741Z,4.80
2017-11-12T19:03:02.995Z,4.80
2017-11-12T19:05:48.713Z,4.70
2017-11-12T19:08:19.843Z,4.70
2017-11-12T19:10:47.419Z,4.70
2017-11-12T19:13:14.956Z,4.50
2017-11-12T19:15:42.485Z,4.60
2017-11-12T19:18:25.849Z,4.60
2017-11-12T19:20:55.289Z,4.50
2017-11-12T19:23:24.016Z,4.60
2017-11-12T19:28:56.455Z,4.70
2017-11-12T19:31:24.732Z,4.70
2017-11-12T19:33:52.214Z,4.70
2017-11-12T19:36:19.700Z,4.70
2017-11-12T19:38:47.239Z,4.80
2017-11-12T19:41:14.842Z,4.70
2017-11-12T19:43:42.330Z,4.70
2017-11-12T19:46:09.807Z,4.70
2017-11-12T19:48:37.261Z,4.70
2017-11-12T19:51:05.494Z,4.70
2017-11-12T19:53:32.984Z,4.70
2017-11-12T19:56:00.512Z,4.80
2017-11-12T19:58:28.230Z,4.80
2017-11-12T20:00:56.477Z,4.70
2017-11-12T20:03:24.278Z,4.70
2017-11-12T20:05:51.771Z,4.80
2017-11-12T20:08:19.343Z,4.70
2017-11-12T20:10:46.808Z,4.70
2017-11-12T20:13:14.316Z,4.80
2017-11-12T20:15:41.817Z,4.80
2017-11-12T20:18:10.073Z,4.90
2017-11-12T20:20:37.624Z,4.90
2017-11-12T20:23:05.157Z,4.90
2017-11-12T20:25:32.659Z,4.80
2017-11-12T20:28:00.899Z,4.90
2017-11-12T20:30:28.400Z,4.90
2017-11-12T20:32:55.858Z,5.00
2017-11-12T20:35:23.334Z,5.10
2017-11-12T20:37:50.974Z,4.90
2017-11-12T20:40:18.469Z,5.10
2017-11-12T20:42:45.964Z,5.10
2017-11-12T20:45:14.384Z,5.10
2017-11-12T20:47:42.670Z,5.10
2017-11-12T20:50:10.195Z,5.10
2017-11-12T20:52:38.585Z,4.90
2017-11-12T20:55:06.129Z,5.10
2017-11-12T20:57:33.740Z,5.10
2017-11-12T21:00:02.071Z,4.90
2017-11-12T21:02:29.554Z,4.90
2017-11-12T21:04:57.647Z,5.00
2017-11-12T21:07:25.969Z,4.90
2017-11-12T21:09:53.490Z,4.90
2017-11-12T21:12:21.010Z,4.50
2017-11-12T21:14:48.516Z,4.70
2017-11-12T21:17:15.993Z,4.70
2017-11-12T21:19:46.085Z,4.60
2017-11-12T21:22:13.565Z,4.60
2017-11-12T21:24:41.085Z,4.50
2017-11-12T21:27:13.201Z,4.50
2017-11-12T21:29:40.648Z,4.50
2017-11-12T21:32:19.740Z,4.60
2017-11-12T21:34:47.217Z,4.60
2017-11-12T21:40:16.587Z,4.50
2017-11-12T21:42:44.090Z,4.50
2017-11-12T21:45:11.644Z,4.40
2017-11-12T21:47:39.142Z,4.50
2017-11-12T21:50:06.717Z,4.40
2017-11-12T21:52:34.167Z,4.40
2017-11-12T21:55:01.699Z,4.50
2017-11-12T21:57:29.196Z,4.60
2017-11-12T21:59:56.668Z,4.60
2017-11-12T22:02:24.202Z,4.70
2017-11-12T22:04:51.786Z,4.70
2017-11-12T22:07:19.241Z,4.70
2017-11-12T22:09:46.715Z,4.70
2017-11-12T22:12:14.259Z,4.80
2017-11-12T22:14:41.725Z,4.80
2017-11-12T22:17:09.240Z,4.80
2017-11-12T22:19:36.873Z,4.70
2017-11-12T22:22:04.318Z,4.70
2017-11-12T22:24:32.534Z,4.70
2017-11-12T22:26:59.998Z,4.70
2017-11-12T22:29:27.467Z,4.80
2017-11-12T22:31:54.952Z,4.80
2017-11-12T22:34:23.169Z,4.90
2017-11-12T22:36:50.634Z,4.90
2017-11-12T22:39:18.115Z,4.90
2017-11-12T22:41:45.563Z,5.00
2017-11-12T22:44:13.027Z,5.00
2017-11-12T22:46:40.564Z,5.10
2017-11-12T22:49:08.034Z,5.10
2017-11-12T22:51:35.485Z,5.20
2017-11-12T22:54:02.981Z,5.20
2017-11-12T22:56:31.298Z,5.20
2017-11-12T22:58:58.872Z,5.20
2017-11-12T23:01:26.384Z,5.20
2017-11-12T23:03:53.841Z,5.20
2017-11-12T23:06:22.050Z,5.10
2017-11-12T23:08:49.628Z,5.20
2017-11-12T23:11:17.089Z,5.10
2017-11-12T23:13:44.628Z,5.10
2017-11-12T23:16:12.124Z,5.10
2017-11-12T23:18:40.349Z,5.10
2017-11-12T23:21:07.875Z,5.10
2017-11-12T23:23:35.406Z,5.20
2017-11-12T23:26:02.865Z,5.20
2017-11-12T23:28:31.076Z,5.20
2017-11-12T23:30:58.540Z,5.10
2017-11-12T23:33:26.115Z,5.10
2017-11-12T23:35:53.639Z,5.10
2017-11-12T23:38:21.099Z,5.10
2017-11-12T23:40:48.576Z,5.10
2017-11-12T23:43:16.063Z,5.20
2017-11-12T23:45:43.787Z,5.10
2017-11-12T23:48:12.214Z,5.10
2017-11-12T23:50:39.657Z,5.10
2017-11-12T23:53:07.102Z,5.00
2017-11-12T23:55:34.588Z,5.10
2017-11-12T23:58:02.118Z,5.10
